sensor_id;sensor_type;location;lat;lon;timestamp;temperature;humidity
66144;SHT31;52947;50.842;6.084;2024-03-29T00:00:10;8.89;75.26
66144;SHT31;52947;50.842;6.084;2024-03-29T00:02:38;8.95;75.21
66144;SHT31;52947;50.842;6.084;2024-03-29T00:05:04;8.85;75.37
66144;SHT31;52947;50.842;6.084;2024-03-29T00:07:30;8.82;75.43
66144;SHT31;52947;50.842;6.084;2024-03-29T00:09:59;8.79;75.49
66144;SHT31;52947;50.842;6.084;2024-03-29T00:12:25;8.79;75.45
66144;SHT31;52947;50.842;6.084;2024-03-29T00:14:51;8.78;75.42
66144;SHT31;52947;50.842;6.084;2024-03-29T00:17:19;8.75;75.52
66144;SHT31;52947;50.842;6.084;2024-03-29T00:19:45;8.71;75.67
66144;SHT31;52947;50.842;6.084;2024-03-29T00:22:11;8.72;75.64
66144;SHT31;52947;50.842;6.084;2024-03-29T00:24:37;8.76;75.61
66144;SHT31;52947;50.842;6.084;2024-03-29T00:27:03;8.75;75.56
66144;SHT31;52947;50.842;6.084;2024-03-29T00:29:30;8.76;75.76
66144;SHT31;52947;50.842;6.084;2024-03-29T00:31:56;8.78;75.65
66144;SHT31;52947;50.842;6.084;2024-03-29T00:34:23;8.71;75.75
66144;SHT31;52947;50.842;6.084;2024-03-29T00:36:49;8.78;75.61
66144;SHT31;52947;50.842;6.084;2024-03-29T00:39:15;9.05;78.14
66144;SHT31;52947;50.842;6.084;2024-03-29T00:41:41;9.33;77.49
66144;SHT31;52947;50.842;6.084;2024-03-29T00:44:07;9.48;75.21
66144;SHT31;52947;50.842;6.084;2024-03-29T00:46:33;9.50;75.56
66144;SHT31;52947;50.842;6.084;2024-03-29T00:48:59;9.79;76.22
66144;SHT31;52947;50.842;6.084;2024-03-29T00:51:27;9.61;74.06
66144;SHT31;52947;50.842;6.084;2024-03-29T00:53:53;9.73;74.23
66144;SHT31;52947;50.842;6.084;2024-03-29T00:56:20;9.79;74.15
66144;SHT31;52947;50.842;6.084;2024-03-29T00:58:46;9.91;74.11
66144;SHT31;52947;50.842;6.084;2024-03-29T01:01:12;9.95;73.83
66144;SHT31;52947;50.842;6.084;2024-03-29T01:03:38;10.01;73.00
66144;SHT31;52947;50.842;6.084;2024-03-29T01:06:04;9.97;72.86
66144;SHT31;52947;50.842;6.084;2024-03-29T01:08:31;9.95;73.07
66144;SHT31;52947;50.842;6.084;2024-03-29T01:10:58;10.05;73.00
66144;SHT31;52947;50.842;6.084;2024-03-29T01:13:24;10.03;72.81
66144;SHT31;52947;50.842;6.084;2024-03-29T01:15:50;10.05;72.73
66144;SHT31;52947;50.842;6.084;2024-03-29T01:18:16;9.91;72.50
66144;SHT31;52947;50.842;6.084;2024-03-29T01:20:42;10.03;72.76
66144;SHT31;52947;50.842;6.084;2024-03-29T01:23:08;9.97;72.77
66144;SHT31;52947;50.842;6.084;2024-03-29T01:25:36;10.01;72.36
66144;SHT31;52947;50.842;6.084;2024-03-29T01:28:02;10.05;72.21
66144;SHT31;52947;50.842;6.084;2024-03-29T01:30:28;10.15;72.11
66144;SHT31;52947;50.842;6.084;2024-03-29T01:32:54;10.13;71.31
66144;SHT31;52947;50.842;6.084;2024-03-29T01:35:20;10.19;71.66
66144;SHT31;52947;50.842;6.084;2024-03-29T01:37:46;10.26;71.41
66144;SHT31;52947;50.842;6.084;2024-03-29T01:40:12;10.25;70.82
66144;SHT31;52947;50.842;6.084;2024-03-29T01:42:40;10.23;70.23
66144;SHT31;52947;50.842;6.084;2024-03-29T01:45:07;10.28;70.70
66144;SHT31;52947;50.842;6.084;2024-03-29T01:47:35;10.23;70.42
66144;SHT31;52947;50.842;6.084;2024-03-29T01:50:03;10.33;70.98
66144;SHT31;52947;50.842;6.084;2024-03-29T01:52:31;10.29;70.14
66144;SHT31;52947;50.842;6.084;2024-03-29T01:54:58;10.35;70.48
66144;SHT31;52947;50.842;6.084;2024-03-29T01:57:26;10.36;70.35
66144;SHT31;52947;50.842;6.084;2024-03-29T01:59:54;10.33;69.70
66144;SHT31;52947;50.842;6.084;2024-03-29T02:02:22;10.36;69.92
66144;SHT31;52947;50.842;6.084;2024-03-29T02:04:50;10.36;70.26
66144;SHT31;52947;50.842;6.084;2024-03-29T02:07:17;10.39;70.11
66144;SHT31;52947;50.842;6.084;2024-03-29T02:09:43;10.40;70.08
66144;SHT31;52947;50.842;6.084;2024-03-29T02:12:10;10.48;69.88
66144;SHT31;52947;50.842;6.084;2024-03-29T02:14:37;10.40;69.65
66144;SHT31;52947;50.842;6.084;2024-03-29T02:17:06;10.40;70.20
66144;SHT31;52947;50.842;6.084;2024-03-29T02:19:34;10.46;70.30
66144;SHT31;52947;50.842;6.084;2024-03-29T02:22:01;10.39;70.97
66144;SHT31;52947;50.842;6.084;2024-03-29T02:24:33;10.36;72.06
66144;SHT31;52947;50.842;6.084;2024-03-29T02:27:01;10.16;73.17
66144;SHT31;52947;50.842;6.084;2024-03-29T02:29:29;9.97;74.87
66144;SHT31;52947;50.842;6.084;2024-03-29T02:31:57;9.68;76.77
66144;SHT31;52947;50.842;6.084;2024-03-29T02:34:24;9.54;78.21
66144;SHT31;52947;50.842;6.084;2024-03-29T02:36:51;9.40;79.04
66144;SHT31;52947;50.842;6.084;2024-03-29T02:39:18;9.37;79.39
66144;SHT31;52947;50.842;6.084;2024-03-29T02:41:46;9.38;79.96
66144;SHT31;52947;50.842;6.084;2024-03-29T02:44:14;9.29;80.15
66144;SHT31;52947;50.842;6.084;2024-03-29T02:46:41;9.24;80.54
66144;SHT31;52947;50.842;6.084;2024-03-29T02:49:08;9.22;81.21
66144;SHT31;52947;50.842;6.084;2024-03-29T02:51:35;9.13;80.96
66144;SHT31;52947;50.842;6.084;2024-03-29T02:54:02;9.16;81.27
66144;SHT31;52947;50.842;6.084;2024-03-29T02:56:28;9.02;81.40
66144;SHT31;52947;50.842;6.084;2024-03-29T02:58:56;9.03;81.33
66144;SHT31;52947;50.842;6.084;2024-03-29T03:01:22;9.09;81.87
66144;SHT31;52947;50.842;6.084;2024-03-29T03:03:49;9.19;82.21
66144;SHT31;52947;50.842;6.084;2024-03-29T03:06:15;9.19;82.14
66144;SHT31;52947;50.842;6.084;2024-03-29T03:08:42;9.26;81.54
66144;SHT31;52947;50.842;6.084;2024-03-29T03:11:27;9.22;81.98
66144;SHT31;52947;50.842;6.084;2024-03-29T03:13:55;9.10;81.38
66144;SHT31;52947;50.842;6.084;2024-03-29T03:16:22;9.16;82.53
66144;SHT31;52947;50.842;6.084;2024-03-29T03:18:50;9.07;82.64
66144;SHT31;52947;50.842;6.084;2024-03-29T03:21:17;9.23;81.55
66144;SHT31;52947;50.842;6.084;2024-03-29T03:23:43;9.20;81.58
66144;SHT31;52947;50.842;6.084;2024-03-29T03:26:10;9.17;80.85
66144;SHT31;52947;50.842;6.084;2024-03-29T03:28:36;9.22;81.84
66144;SHT31;52947;50.842;6.084;2024-03-29T03:31:04;9.20;81.92
66144;SHT31;52947;50.842;6.084;2024-03-29T03:33:32;9.16;81.47
66144;SHT31;52947;50.842;6.084;2024-03-29T03:35:59;9.23;82.19
66144;SHT31;52947;50.842;6.084;2024-03-29T03:38:26;9.06;82.19
66144;SHT31;52947;50.842;6.084;2024-03-29T03:40:53;9.12;84.03
66144;SHT31;52947;50.842;6.084;2024-03-29T03:43:19;9.17;83.26
66144;SHT31;52947;50.842;6.084;2024-03-29T03:45:46;9.29;82.35
66144;SHT31;52947;50.842;6.084;2024-03-29T03:48:15;9.16;81.54
66144;SHT31;52947;50.842;6.084;2024-03-29T03:50:42;9.23;81.85
66144;SHT31;52947;50.842;6.084;2024-03-29T03:53:08;9.15;82.80
66144;SHT31;52947;50.842;6.084;2024-03-29T03:55:36;9.15;82.98
66144;SHT31;52947;50.842;6.084;2024-03-29T03:58:02;9.16;83.43
66144;SHT31;52947;50.842;6.084;2024-03-29T04:00:29;9.29;84.12
66144;SHT31;52947;50.842;6.084;2024-03-29T04:02:55;9.24;82.76
66144;SHT31;52947;50.842;6.084;2024-03-29T04:05:24;9.31;82.92
66144;SHT31;52947;50.842;6.084;2024-03-29T04:07:50;9.38;83.63
66144;SHT31;52947;50.842;6.084;2024-03-29T04:10:17;9.50;83.61
66144;SHT31;52947;50.842;6.084;2024-03-29T04:12:43;9.65;82.16
66144;SHT31;52947;50.842;6.084;2024-03-29T04:15:10;9.82;82.61
66144;SHT31;52947;50.842;6.084;2024-03-29T04:17:37;9.84;81.28
66144;SHT31;52947;50.842;6.084;2024-03-29T04:20:04;9.81;82.07
66144;SHT31;52947;50.842;6.084;2024-03-29T04:22:32;9.67;82.05
66144;SHT31;52947;50.842;6.084;2024-03-29T04:24:59;9.57;81.64
66144;SHT31;52947;50.842;6.084;2024-03-29T04:27:26;9.58;83.16
66144;SHT31;52947;50.842;6.084;2024-03-29T04:29:53;9.51;82.40
66144;SHT31;52947;50.842;6.084;2024-03-29T04:32:19;9.38;81.61
66144;SHT31;52947;50.842;6.084;2024-03-29T04:34:47;9.55;83.33
66144;SHT31;52947;50.842;6.084;2024-03-29T04:37:13;9.73;82.69
66144;SHT31;52947;50.842;6.084;2024-03-29T04:39:42;9.73;81.67
66144;SHT31;52947;50.842;6.084;2024-03-29T04:42:10;9.64;81.92
66144;SHT31;52947;50.842;6.084;2024-03-29T04:44:37;9.57;82.18
66144;SHT31;52947;50.842;6.084;2024-03-29T04:47:04;9.57;83.13
66144;SHT31;52947;50.842;6.084;2024-03-29T04:49:31;9.33;82.42
66144;SHT31;52947;50.842;6.084;2024-03-29T04:52:00;9.31;82.78
66144;SHT31;52947;50.842;6.084;2024-03-29T04:54:27;9.40;83.49
66144;SHT31;52947;50.842;6.084;2024-03-29T04:56:56;9.43;83.05
66144;SHT31;52947;50.842;6.084;2024-03-29T04:59:22;9.41;82.68
66144;SHT31;52947;50.842;6.084;2024-03-29T05:01:50;9.30;82.87
66144;SHT31;52947;50.842;6.084;2024-03-29T05:04:18;9.30;84.57
66144;SHT31;52947;50.842;6.084;2024-03-29T05:06:51;9.34;82.85
66144;SHT31;52947;50.842;6.084;2024-03-29T05:09:19;9.22;82.87
66144;SHT31;52947;50.842;6.084;2024-03-29T05:11:46;9.40;82.52
66144;SHT31;52947;50.842;6.084;2024-03-29T05:14:14;9.03;83.48
66144;SHT31;52947;50.842;6.084;2024-03-29T05:16:43;8.96;83.95
66144;SHT31;52947;50.842;6.084;2024-03-29T05:19:11;8.76;85.04
66144;SHT31;52947;50.842;6.084;2024-03-29T05:21:38;8.72;84.59
66144;SHT31;52947;50.842;6.084;2024-03-29T05:24:06;8.71;85.70
66144;SHT31;52947;50.842;6.084;2024-03-29T05:26:33;8.86;86.10
66144;SHT31;52947;50.842;6.084;2024-03-29T05:29:00;8.86;86.12
66144;SHT31;52947;50.842;6.084;2024-03-29T05:31:31;9.17;87.04
66144;SHT31;52947;50.842;6.084;2024-03-29T05:33:58;9.12;85.53
66144;SHT31;52947;50.842;6.084;2024-03-29T05:36:26;9.03;86.15
66144;SHT31;52947;50.842;6.084;2024-03-29T05:38:53;8.90;86.93
66144;SHT31;52947;50.842;6.084;2024-03-29T05:41:21;8.82;88.61
66144;SHT31;52947;50.842;6.084;2024-03-29T05:43:48;8.95;88.57
66144;SHT31;52947;50.842;6.084;2024-03-29T05:46:15;9.20;87.39
66144;SHT31;52947;50.842;6.084;2024-03-29T05:48:44;9.29;87.51
66144;SHT31;52947;50.842;6.084;2024-03-29T05:51:11;9.22;87.80
66144;SHT31;52947;50.842;6.084;2024-03-29T05:53:38;9.23;87.84
66144;SHT31;52947;50.842;6.084;2024-03-29T05:56:06;9.34;88.07
66144;SHT31;52947;50.842;6.084;2024-03-29T05:58:33;9.26;88.72
66144;SHT31;52947;50.842;6.084;2024-03-29T06:01:00;9.19;89.46
66144;SHT31;52947;50.842;6.084;2024-03-29T06:03:27;9.22;89.59
66144;SHT31;52947;50.842;6.084;2024-03-29T06:05:56;9.34;89.36
66144;SHT31;52947;50.842;6.084;2024-03-29T06:08:24;9.43;89.39
66144;SHT31;52947;50.842;6.084;2024-03-29T06:10:53;9.48;89.32
66144;SHT31;52947;50.842;6.084;2024-03-29T06:13:20;9.55;89.28
66144;SHT31;52947;50.842;6.084;2024-03-29T06:16:14;9.58;89.41
66144;SHT31;52947;50.842;6.084;2024-03-29T06:18:59;9.65;89.40
66144;SHT31;52947;50.842;6.084;2024-03-29T06:21:28;9.70;89.42
66144;SHT31;52947;50.842;6.084;2024-03-29T06:23:56;9.65;89.95
66144;SHT31;52947;50.842;6.084;2024-03-29T06:26:23;9.64;90.23
66144;SHT31;52947;50.842;6.084;2024-03-29T06:28:50;9.58;90.56
66144;SHT31;52947;50.842;6.084;2024-03-29T06:31:17;9.61;90.71
66144;SHT31;52947;50.842;6.084;2024-03-29T06:33:44;9.61;90.79
66144;SHT31;52947;50.842;6.084;2024-03-29T06:36:13;9.62;90.79
66144;SHT31;52947;50.842;6.084;2024-03-29T06:38:42;9.60;90.85
66144;SHT31;52947;50.842;6.084;2024-03-29T06:41:09;9.68;90.93
66144;SHT31;52947;50.842;6.084;2024-03-29T06:43:36;9.68;91.20
66144;SHT31;52947;50.842;6.084;2024-03-29T06:46:03;9.70;91.24
66144;SHT31;52947;50.842;6.084;2024-03-29T06:48:31;9.81;90.83
66144;SHT31;52947;50.842;6.084;2024-03-29T06:51:01;9.81;90.73
66144;SHT31;52947;50.842;6.084;2024-03-29T06:53:29;9.87;91.17
66144;SHT31;52947;50.842;6.084;2024-03-29T06:55:59;9.92;91.00
66144;SHT31;52947;50.842;6.084;2024-03-29T06:58:27;9.95;91.23
66144;SHT31;52947;50.842;6.084;2024-03-29T07:00:54;10.02;91.13
66144;SHT31;52947;50.842;6.084;2024-03-29T07:03:21;10.42;90.05
66144;SHT31;52947;50.842;6.084;2024-03-29T07:05:48;10.60;89.39
66144;SHT31;52947;50.842;6.084;2024-03-29T07:08:15;10.74;89.29
66144;SHT31;52947;50.842;6.084;2024-03-29T07:10:42;10.73;89.01
66144;SHT31;52947;50.842;6.084;2024-03-29T07:13:11;10.64;89.35
66144;SHT31;52947;50.842;6.084;2024-03-29T07:15:38;10.60;89.91
66144;SHT31;52947;50.842;6.084;2024-03-29T07:18:05;10.57;90.15
66144;SHT31;52947;50.842;6.084;2024-03-29T07:20:32;10.43;90.91
66144;SHT31;52947;50.842;6.084;2024-03-29T07:23:00;10.38;91.10
66144;SHT31;52947;50.842;6.084;2024-03-29T07:25:27;10.38;91.01
66144;SHT31;52947;50.842;6.084;2024-03-29T07:27:54;10.39;90.96
66144;SHT31;52947;50.842;6.084;2024-03-29T07:30:22;10.40;90.71
66144;SHT31;52947;50.842;6.084;2024-03-29T07:32:49;10.53;90.58
66144;SHT31;52947;50.842;6.084;2024-03-29T07:35:17;10.61;90.16
66144;SHT31;52947;50.842;6.084;2024-03-29T07:37:44;10.73;90.04
66144;SHT31;52947;50.842;6.084;2024-03-29T07:40:13;10.91;89.39
66144;SHT31;52947;50.842;6.084;2024-03-29T07:42:40;10.96;89.25
66144;SHT31;52947;50.842;6.084;2024-03-29T07:45:08;10.89;89.35
66144;SHT31;52947;50.842;6.084;2024-03-29T07:47:36;10.87;89.40
66144;SHT31;52947;50.842;6.084;2024-03-29T07:50:04;10.90;89.57
66144;SHT31;52947;50.842;6.084;2024-03-29T07:52:31;10.96;89.72
66144;SHT31;52947;50.842;6.084;2024-03-29T07:54:58;10.96;89.74
66144;SHT31;52947;50.842;6.084;2024-03-29T07:57:26;10.97;89.56
66144;SHT31;52947;50.842;6.084;2024-03-29T07:59:53;10.91;89.98
66144;SHT31;52947;50.842;6.084;2024-03-29T08:02:20;10.97;89.97
66144;SHT31;52947;50.842;6.084;2024-03-29T08:04:52;11.15;89.48
66144;SHT31;52947;50.842;6.084;2024-03-29T08:07:19;11.28;88.87
66144;SHT31;52947;50.842;6.084;2024-03-29T08:09:46;11.52;88.07
66144;SHT31;52947;50.842;6.084;2024-03-29T08:12:13;11.76;87.85
66144;SHT31;52947;50.842;6.084;2024-03-29T08:14:40;12.03;86.81
66144;SHT31;52947;50.842;6.084;2024-03-29T08:17:08;12.13;86.38
66144;SHT31;52947;50.842;6.084;2024-03-29T08:19:35;12.29;85.67
66144;SHT31;52947;50.842;6.084;2024-03-29T08:22:04;12.14;85.78
66144;SHT31;52947;50.842;6.084;2024-03-29T08:24:31;12.23;85.85
66144;SHT31;52947;50.842;6.084;2024-03-29T08:26:58;12.37;85.44
66144;SHT31;52947;50.842;6.084;2024-03-29T08:29:27;12.38;85.11
66144;SHT31;52947;50.842;6.084;2024-03-29T08:31:54;12.45;85.26
66144;SHT31;52947;50.842;6.084;2024-03-29T08:34:22;12.51;84.63
66144;SHT31;52947;50.842;6.084;2024-03-29T08:36:49;12.44;84.84
66144;SHT31;52947;50.842;6.084;2024-03-29T08:39:17;12.41;85.20
66144;SHT31;52947;50.842;6.084;2024-03-29T08:41:44;12.51;84.98
66144;SHT31;52947;50.842;6.084;2024-03-29T08:44:11;12.65;84.24
66144;SHT31;52947;50.842;6.084;2024-03-29T08:46:38;12.81;83.61
66144;SHT31;52947;50.842;6.084;2024-03-29T08:49:05;12.88;83.50
66144;SHT31;52947;50.842;6.084;2024-03-29T08:51:32;12.99;83.25
66144;SHT31;52947;50.842;6.084;2024-03-29T08:53:59;13.15;82.74
66144;SHT31;52947;50.842;6.084;2024-03-29T08:56:32;13.23;81.74
66144;SHT31;52947;50.842;6.084;2024-03-29T08:59:00;13.38;81.28
66144;SHT31;52947;50.842;6.084;2024-03-29T09:01:28;13.78;80.41
66144;SHT31;52947;50.842;6.084;2024-03-29T09:03:55;14.05;80.03
66144;SHT31;52947;50.842;6.084;2024-03-29T09:06:22;13.94;79.49
66144;SHT31;52947;50.842;6.084;2024-03-29T09:08:49;14.00;80.12
66144;SHT31;52947;50.842;6.084;2024-03-29T09:11:16;14.05;79.40
66144;SHT31;52947;50.842;6.084;2024-03-29T09:13:45;14.05;78.63
66144;SHT31;52947;50.842;6.084;2024-03-29T09:16:12;14.11;78.52
66144;SHT31;52947;50.842;6.084;2024-03-29T09:18:39;14.25;78.29
66144;SHT31;52947;50.842;6.084;2024-03-29T09:21:06;14.25;78.34
66144;SHT31;52947;50.842;6.084;2024-03-29T09:23:34;14.68;77.24
66144;SHT31;52947;50.842;6.084;2024-03-29T09:26:04;14.42;78.10
66144;SHT31;52947;50.842;6.084;2024-03-29T09:28:31;14.21;77.81
66144;SHT31;52947;50.842;6.084;2024-03-29T09:31:01;14.10;78.28
66144;SHT31;52947;50.842;6.084;2024-03-29T09:33:28;14.13;77.89
66144;SHT31;52947;50.842;6.084;2024-03-29T09:35:55;14.21;78.23
66144;SHT31;52947;50.842;6.084;2024-03-29T09:38:24;14.41;77.77
66144;SHT31;52947;50.842;6.084;2024-03-29T09:40:59;14.38;76.98
66144;SHT31;52947;50.842;6.084;2024-03-29T09:43:30;14.48;77.08
66144;SHT31;52947;50.842;6.084;2024-03-29T09:45:58;14.45;77.25
66144;SHT31;52947;50.842;6.084;2024-03-29T09:48:27;14.22;77.42
66144;SHT31;52947;50.842;6.084;2024-03-29T09:51:03;13.98;78.03
66144;SHT31;52947;50.842;6.084;2024-03-29T09:53:31;13.95;78.27
66144;SHT31;52947;50.842;6.084;2024-03-29T09:56:00;13.81;78.53
66144;SHT31;52947;50.842;6.084;2024-03-29T09:58:28;13.83;78.42
66144;SHT31;52947;50.842;6.084;2024-03-29T10:00:55;13.97;78.28
66144;SHT31;52947;50.842;6.084;2024-03-29T10:03:23;14.07;78.18
66144;SHT31;52947;50.842;6.084;2024-03-29T10:05:56;14.10;77.77
66144;SHT31;52947;50.842;6.084;2024-03-29T10:08:25;14.18;77.53
66144;SHT31;52947;50.842;6.084;2024-03-29T10:10:54;14.29;77.38
66144;SHT31;52947;50.842;6.084;2024-03-29T10:13:21;14.21;77.42
66144;SHT31;52947;50.842;6.084;2024-03-29T10:15:49;14.17;77.21
66144;SHT31;52947;50.842;6.084;2024-03-29T10:18:17;14.28;76.45
66144;SHT31;52947;50.842;6.084;2024-03-29T10:20:45;14.42;76.68
66144;SHT31;52947;50.842;6.084;2024-03-29T10:23:14;14.56;75.69
66144;SHT31;52947;50.842;6.084;2024-03-29T10:25:43;14.69;75.15
66144;SHT31;52947;50.842;6.084;2024-03-29T10:28:11;15.14;73.58
66144;SHT31;52947;50.842;6.084;2024-03-29T10:30:38;15.59;72.56
66144;SHT31;52947;50.842;6.084;2024-03-29T10:33:05;16.08;72.30
66144;SHT31;52947;50.842;6.084;2024-03-29T10:35:32;15.59;71.51
66144;SHT31;52947;50.842;6.084;2024-03-29T10:38:02;15.57;72.36
66144;SHT31;52947;50.842;6.084;2024-03-29T10:40:30;15.23;72.94
66144;SHT31;52947;50.842;6.084;2024-03-29T10:42:58;14.86;73.88
66144;SHT31;52947;50.842;6.084;2024-03-29T10:45:26;14.69;74.38
66144;SHT31;52947;50.842;6.084;2024-03-29T10:47:54;14.64;75.08
66144;SHT31;52947;50.842;6.084;2024-03-29T10:50:22;14.71;75.11
66144;SHT31;52947;50.842;6.084;2024-03-29T10:52:50;14.79;74.95
66144;SHT31;52947;50.842;6.084;2024-03-29T10:55:17;14.83;74.90
66144;SHT31;52947;50.842;6.084;2024-03-29T10:57:48;14.71;74.83
66144;SHT31;52947;50.842;6.084;2024-03-29T11:00:23;14.68;74.44
66144;SHT31;52947;50.842;6.084;2024-03-29T11:02:57;14.66;74.43
66144;SHT31;52947;50.842;6.084;2024-03-29T11:05:26;14.64;74.32
66144;SHT31;52947;50.842;6.084;2024-03-29T11:07:54;14.75;73.73
66144;SHT31;52947;50.842;6.084;2024-03-29T11:10:25;14.71;74.47
66144;SHT31;52947;50.842;6.084;2024-03-29T11:12:59;14.97;74.37
66144;SHT31;52947;50.842;6.084;2024-03-29T11:15:35;14.96;73.89
66144;SHT31;52947;50.842;6.084;2024-03-29T11:18:04;14.93;73.73
66144;SHT31;52947;50.842;6.084;2024-03-29T11:20:32;14.97;73.34
66144;SHT31;52947;50.842;6.084;2024-03-29T11:23:08;15.04;73.83
66144;SHT31;52947;50.842;6.084;2024-03-29T11:25:40;15.20;73.29
66144;SHT31;52947;50.842;6.084;2024-03-29T11:28:11;15.54;72.91
66144;SHT31;52947;50.842;6.084;2024-03-29T11:30:41;15.55;71.93
66144;SHT31;52947;50.842;6.084;2024-03-29T11:35:50;15.23;71.73
66144;SHT31;52947;50.842;6.084;2024-03-29T11:38:17;15.11;72.64
66144;SHT31;52947;50.842;6.084;2024-03-29T11:40:53;15.00;73.59
66144;SHT31;52947;50.842;6.084;2024-03-29T11:43:22;14.83;73.70
66144;SHT31;52947;50.842;6.084;2024-03-29T11:45:49;14.85;73.96
66144;SHT31;52947;50.842;6.084;2024-03-29T11:48:23;14.62;73.82
66144;SHT31;52947;50.842;6.084;2024-03-29T11:50:51;14.55;74.20
66144;SHT31;52947;50.842;6.084;2024-03-29T11:53:18;14.39;74.04
66144;SHT31;52947;50.842;6.084;2024-03-29T11:55:45;14.45;74.25
66144;SHT31;52947;50.842;6.084;2024-03-29T11:58:14;14.39;74.47
66144;SHT31;52947;50.842;6.084;2024-03-29T12:00:43;14.42;74.50
66144;SHT31;52947;50.842;6.084;2024-03-29T12:03:11;14.52;74.87
66144;SHT31;52947;50.842;6.084;2024-03-29T12:05:38;14.41;74.48
66144;SHT31;52947;50.842;6.084;2024-03-29T12:08:05;14.62;74.43
66144;SHT31;52947;50.842;6.084;2024-03-29T12:10:35;14.68;73.95
66144;SHT31;52947;50.842;6.084;2024-03-29T12:13:02;14.65;74.37
66144;SHT31;52947;50.842;6.084;2024-03-29T12:15:30;14.59;74.54
66144;SHT31;52947;50.842;6.084;2024-03-29T12:18:00;14.44;74.54
66144;SHT31;52947;50.842;6.084;2024-03-29T12:20:29;14.26;74.37
66144;SHT31;52947;50.842;6.084;2024-03-29T12:22:58;14.20;74.59
66144;SHT31;52947;50.842;6.084;2024-03-29T12:25:26;14.17;74.51
66144;SHT31;52947;50.842;6.084;2024-03-29T12:27:53;14.14;74.63
66144;SHT31;52947;50.842;6.084;2024-03-29T12:30:20;14.44;74.64
66144;SHT31;52947;50.842;6.084;2024-03-29T12:32:48;14.76;73.83
66144;SHT31;52947;50.842;6.084;2024-03-29T12:35:16;14.86;73.28
66144;SHT31;52947;50.842;6.084;2024-03-29T12:37:50;14.83;73.17
66144;SHT31;52947;50.842;6.084;2024-03-29T12:40:18;14.77;73.11
66144;SHT31;52947;50.842;6.084;2024-03-29T12:42:48;14.76;73.51
66144;SHT31;52947;50.842;6.084;2024-03-29T12:45:16;14.68;73.46
66144;SHT31;52947;50.842;6.084;2024-03-29T12:47:44;14.55;73.37
66144;SHT31;52947;50.842;6.084;2024-03-29T12:50:13;14.75;73.43
66144;SHT31;52947;50.842;6.084;2024-03-29T12:52:42;14.89;72.80
66144;SHT31;52947;50.842;6.084;2024-03-29T12:55:09;15.08;72.43
66144;SHT31;52947;50.842;6.084;2024-03-29T12:57:37;15.37;72.04
66144;SHT31;52947;50.842;6.084;2024-03-29T13:00:07;15.22;71.71
66144;SHT31;52947;50.842;6.084;2024-03-29T13:02:35;15.38;71.66
66144;SHT31;52947;50.842;6.084;2024-03-29T13:05:03;16.74;69.20
66144;SHT31;52947;50.842;6.084;2024-03-29T13:07:31;16.95;67.46
66144;SHT31;52947;50.842;6.084;2024-03-29T13:09:59;16.84;68.55
66144;SHT31;52947;50.842;6.084;2024-03-29T13:12:29;17.25;66.71
66144;SHT31;52947;50.842;6.084;2024-03-29T13:14:56;17.04;67.20
66144;SHT31;52947;50.842;6.084;2024-03-29T13:17:23;16.22;69.27
66144;SHT31;52947;50.842;6.084;2024-03-29T13:19:50;15.59;70.23
66144;SHT31;52947;50.842;6.084;2024-03-29T13:22:17;16.55;68.31
66144;SHT31;52947;50.842;6.084;2024-03-29T13:24:44;16.71;68.13
66144;SHT31;52947;50.842;6.084;2024-03-29T13:27:12;16.83;67.49
66144;SHT31;52947;50.842;6.084;2024-03-29T13:29:39;17.15;66.94
66144;SHT31;52947;50.842;6.084;2024-03-29T13:32:06;17.99;64.13
66144;SHT31;52947;50.842;6.084;2024-03-29T13:34:34;18.20;63.52
66144;SHT31;52947;50.842;6.084;2024-03-29T13:37:01;18.54;63.27
66144;SHT31;52947;50.842;6.084;2024-03-29T13:39:28;18.68;63.10
66144;SHT31;52947;50.842;6.084;2024-03-29T13:41:55;18.36;63.27
66144;SHT31;52947;50.842;6.084;2024-03-29T13:44:23;17.48;63.49
66144;SHT31;52947;50.842;6.084;2024-03-29T13:46:51;16.64;65.73
66144;SHT31;52947;50.842;6.084;2024-03-29T13:49:18;16.55;65.75
66144;SHT31;52947;50.842;6.084;2024-03-29T13:51:46;16.69;66.15
66144;SHT31;52947;50.842;6.084;2024-03-29T13:54:13;17.10;65.08
66144;SHT31;52947;50.842;6.084;2024-03-29T13:56:41;17.08;64.66
66144;SHT31;52947;50.842;6.084;2024-03-29T13:59:08;17.38;64.30
66144;SHT31;52947;50.842;6.084;2024-03-29T14:01:36;17.38;64.49
66144;SHT31;52947;50.842;6.084;2024-03-29T14:04:03;17.08;63.69
66144;SHT31;52947;50.842;6.084;2024-03-29T14:06:32;16.84;63.77
66144;SHT31;52947;50.842;6.084;2024-03-29T14:08:59;17.10;63.46
66144;SHT31;52947;50.842;6.084;2024-03-29T14:11:28;17.08;63.19
66144;SHT31;52947;50.842;6.084;2024-03-29T14:13:55;16.98;63.44
66144;SHT31;52947;50.842;6.084;2024-03-29T14:16:22;16.90;63.81
66144;SHT31;52947;50.842;6.084;2024-03-29T14:18:51;16.76;64.01
66144;SHT31;52947;50.842;6.084;2024-03-29T14:21:18;16.56;64.56
66144;SHT31;52947;50.842;6.084;2024-03-29T14:23:45;16.45;64.22
66144;SHT31;52947;50.842;6.084;2024-03-29T14:26:12;16.30;64.44
66144;SHT31;52947;50.842;6.084;2024-03-29T14:28:39;16.23;65.15
66144;SHT31;52947;50.842;6.084;2024-03-29T14:31:06;16.23;65.67
66144;SHT31;52947;50.842;6.084;2024-03-29T14:33:34;16.47;65.52
66144;SHT31;52947;50.842;6.084;2024-03-29T14:36:04;16.52;65.31
66144;SHT31;52947;50.842;6.084;2024-03-29T14:38:31;16.18;65.75
66144;SHT31;52947;50.842;6.084;2024-03-29T14:40:58;15.99;66.26
66144;SHT31;52947;50.842;6.084;2024-03-29T14:43:25;15.88;66.24
66144;SHT31;52947;50.842;6.084;2024-03-29T14:45:52;15.72;66.58
66144;SHT31;52947;50.842;6.084;2024-03-29T14:48:19;15.72;66.60
66144;SHT31;52947;50.842;6.084;2024-03-29T14:50:46;15.59;66.53
66144;SHT31;52947;50.842;6.084;2024-03-29T14:53:14;15.61;67.34
66144;SHT31;52947;50.842;6.084;2024-03-29T14:55:41;15.57;67.06
66144;SHT31;52947;50.842;6.084;2024-03-29T14:58:08;15.54;67.10
66144;SHT31;52947;50.842;6.084;2024-03-29T15:00:35;15.61;67.17
66144;SHT31;52947;50.842;6.084;2024-03-29T15:03:02;15.68;67.25
66144;SHT31;52947;50.842;6.084;2024-03-29T15:05:30;15.67;68.08
66144;SHT31;52947;50.842;6.084;2024-03-29T15:07:57;15.57;68.11
66144;SHT31;52947;50.842;6.084;2024-03-29T15:10:25;15.43;68.74
66144;SHT31;52947;50.842;6.084;2024-03-29T15:13:11;15.20;68.91
66144;SHT31;52947;50.842;6.084;2024-03-29T15:15:38;15.08;69.47
66144;SHT31;52947;50.842;6.084;2024-03-29T15:18:05;15.04;69.87
66144;SHT31;52947;50.842;6.084;2024-03-29T15:20:32;15.03;70.06
66144;SHT31;52947;50.842;6.084;2024-03-29T15:22:59;15.00;70.05
66144;SHT31;52947;50.842;6.084;2024-03-29T15:25:27;14.89;70.05
66144;SHT31;52947;50.842;6.084;2024-03-29T15:27:54;14.80;70.67
66144;SHT31;52947;50.842;6.084;2024-03-29T15:30:38;14.85;70.66
66144;SHT31;52947;50.842;6.084;2024-03-29T15:33:09;14.82;70.46
66144;SHT31;52947;50.842;6.084;2024-03-29T15:35:36;14.71;70.73
66144;SHT31;52947;50.842;6.084;2024-03-29T15:38:03;14.66;70.96
66144;SHT31;52947;50.842;6.084;2024-03-29T15:40:38;14.64;71.34
66144;SHT31;52947;50.842;6.084;2024-03-29T15:43:05;14.56;71.13